sensor_id;sensor_type;location;lat;lon;timestamp;temperature;humidity
20803;DHT22;10562;-33.856;151.182;2023-02-07T00:01:27;26.60;99.90
20803;DHT22;10562;-33.856;151.182;2023-02-07T00:04:00;26.60;99.90
20803;DHT22;10562;-33.856;151.182;2023-02-07T00:06:32;26.60;99.90
20803;DHT22;10562;-33.856;151.182;2023-02-07T00:09:05;26.60;99.90
20803;DHT22;10562;-33.856;151.182;2023-02-07T00:11:36;26.60;99.90
20803;DHT22;10562;-33.856;151.182;2023-02-07T00:14:09;26.60;99.90
20803;DHT22;10562;-33.856;151.182;2023-02-07T00:16:41;26.70;99.90
20803;DHT22;10562;-33.856;151.182;2023-02-07T00:19:13;26.60;99.90
20803;DHT22;10562;-33.856;151.182;2023-02-07T00:21:44;26.60;99.90
20803;DHT22;10562;-33.856;151.182;2023-02-07T00:24:15;26.70;99.90
20803;DHT22;10562;-33.856;151.182;2023-02-07T00:26:46;26.70;99.90
20803;DHT22;10562;-33.856;151.182;2023-02-07T00:29:19;26.60;99.90
20803;DHT22;10562;-33.856;151.182;2023-02-07T00:31:49;26.50;99.90
20803;DHT22;10562;-33.856;151.182;2023-02-07T00:34:22;26.50;99.90
20803;DHT22;10562;-33.856;151.182;2023-02-07T00:36:53;26.40;99.90
20803;DHT22;10562;-33.856;151.182;2023-02-07T00:39:24;26.20;99.90
20803;DHT22;10562;-33.856;151.182;2023-02-07T00:41:54;26.00;99.90
20803;DHT22;10562;-33.856;151.182;2023-02-07T00:44:25;26.00;99.90
20803;DHT22;10562;-33.856;151.182;2023-02-07T00:46:56;26.00;99.90
20803;DHT22;10562;-33.856;151.182;2023-02-07T00:49:29;25.90;99.90
20803;DHT22;10562;-33.856;151.182;2023-02-07T00:52:00;25.80;99.90
20803;DHT22;10562;-33.856;151.182;2023-02-07T00:54:30;25.70;99.90
20803;DHT22;10562;-33.856;151.182;2023-02-07T00:57:01;25.70;99.90
20803;DHT22;10562;-33.856;151.182;2023-02-07T00:59:32;25.70;99.90
20803;DHT22;10562;-33.856;151.182;2023-02-07T01:02:03;25.80;99.90
20803;DHT22;10562;-33.856;151.182;2023-02-07T01:04:36;25.80;99.90
20803;DHT22;10562;-33.856;151.182;2023-02-07T01:07:07;25.90;99.90
20803;DHT22;10562;-33.856;151.182;2023-02-07T01:09:38;25.70;99.90
20803;DHT22;10562;-33.856;151.182;2023-02-07T01:12:09;25.70;99.90
20803;DHT22;10562;-33.856;151.182;2023-02-07T01:14:40;25.80;99.90
20803;DHT22;10562;-33.856;151.182;2023-02-07T01:17:10;26.10;99.90
20803;DHT22;10562;-33.856;151.182;2023-02-07T01:19:43;26.50;99.90
20803;DHT22;10562;-33.856;151.182;2023-02-07T01:22:14;27.10;99.90
20803;DHT22;10562;-33.856;151.182;2023-02-07T01:24:44;27.40;99.90
20803;DHT22;10562;-33.856;151.182;2023-02-07T01:27:15;27.60;99.90
20803;DHT22;10562;-33.856;151.182;2023-02-07T01:29:46;27.70;99.90
20803;DHT22;10562;-33.856;151.182;2023-02-07T01:32:17;27.80;99.90
20803;DHT22;10562;-33.856;151.182;2023-02-07T01:34:50;27.70;99.90
20803;DHT22;10562;-33.856;151.182;2023-02-07T01:37:20;27.70;99.90
20803;DHT22;10562;-33.856;151.182;2023-02-07T01:39:51;27.70;99.90
20803;DHT22;10562;-33.856;151.182;2023-02-07T01:42:24;27.70;99.90
20803;DHT22;10562;-33.856;151.182;2023-02-07T01:45:11;27.70;99.90
20803;DHT22;10562;-33.856;151.182;2023-02-07T01:47:45;27.80;99.90
20803;DHT22;10562;-33.856;151.182;2023-02-07T01:50:18;28.00;99.90
20803;DHT22;10562;-33.856;151.182;2023-02-07T01:52:49;27.70;99.90
20803;DHT22;10562;-33.856;151.182;2023-02-07T01:55:21;27.90;99.90
20803;DHT22;10562;-33.856;151.182;2023-02-07T01:57:54;28.30;99.90
20803;DHT22;10562;-33.856;151.182;2023-02-07T02:00:25;28.70;99.90
20803;DHT22;10562;-33.856;151.182;2023-02-07T02:02:56;29.00;99.90
20803;DHT22;10562;-33.856;151.182;2023-02-07T02:05:29;29.10;99.90
20803;DHT22;10562;-33.856;151.182;2023-02-07T02:08:00;29.10;99.90
20803;DHT22;10562;-33.856;151.182;2023-02-07T02:10:47;29.50;99.90
20803;DHT22;10562;-33.856;151.182;2023-02-07T02:13:25;29.50;99.90
20803;DHT22;10562;-33.856;151.182;2023-02-07T02:16:06;30.00;99.90
20803;DHT22;10562;-33.856;151.182;2023-02-07T02:18:50;30.60;99.90
20803;DHT22;10562;-33.856;151.182;2023-02-07T02:25:08;30.90;99.90
20803;DHT22;10562;-33.856;151.182;2023-02-07T02:28:07;30.90;99.90
20803;DHT22;10562;-33.856;151.182;2023-02-07T02:31:00;30.70;
20803;DHT22;10562;-33.856;151.182;2023-02-07T02:33:45;30.80;99.90
20803;DHT22;10562;-33.856;151.182;2023-02-07T02:36:24;30.70;99.90
20803;DHT22;10562;-33.856;151.182;2023-02-07T02:39:02;30.50;99.90
20803;DHT22;10562;-33.856;151.182;2023-02-07T02:41:41;30.70;99.90
20803;DHT22;10562;-33.856;151.182;2023-02-07T02:44:17;30.80;99.90
20803;DHT22;10562;-33.856;151.182;2023-02-07T02:46:53;30.90;99.90
20803;DHT22;10562;-33.856;151.182;2023-02-07T02:49:27;31.00;99.90
20803;DHT22;10562;-33.856;151.182;2023-02-07T02:51:58;31.10;99.90
20803;DHT22;10562;-33.856;151.182;2023-02-07T02:54:30;31.00;99.90
20803;DHT22;10562;-33.856;151.182;2023-02-07T02:57:35;31.20;99.90
20803;DHT22;10562;-33.856;151.182;2023-02-07T03:00:28;31.20;99.90
20803;DHT22;10562;-33.856;151.182;2023-02-07T03:06:15;31.30;99.90
20803;DHT22;10562;-33.856;151.182;2023-02-07T03:08:53;31.10;99.90
20803;DHT22;10562;-33.856;151.182;2023-02-07T03:11:32;31.00;99.90
20803;DHT22;10562;-33.856;151.182;2023-02-07T03:14:15;31.00;99.90
20803;DHT22;10562;-33.856;151.182;2023-02-07T03:16:52;31.10;99.90
20803;DHT22;10562;-33.856;151.182;2023-02-07T03:19:27;30.90;99.90
20803;DHT22;10562;-33.856;151.182;2023-02-07T03:22:05;31.10;99.90
20803;DHT22;10562;-33.856;151.182;2023-02-07T03:24:40;31.00;99.90
20803;DHT22;10562;-33.856;151.182;2023-02-07T03:27:14;30.90;99.90
20803;DHT22;10562;-33.856;151.182;2023-02-07T03:29:47;30.50;99.90
20803;DHT22;10562;-33.856;151.182;2023-02-07T03:32:25;30.40;99.90
20803;DHT22;10562;-33.856;151.182;2023-02-07T03:34:59;30.80;99.90
20803;DHT22;10562;-33.856;151.182;2023-02-07T03:37:36;31.00;99.90
20803;DHT22;10562;-33.856;151.182;2023-02-07T03:40:09;30.90;99.90
20803;DHT22;10562;-33.856;151.182;2023-02-07T03:42:43;30.90;99.90
20803;DHT22;10562;-33.856;151.182;2023-02-07T03:45:18;31.00;99.90
20803;DHT22;10562;-33.856;151.182;2023-02-07T03:47:49;31.00;99.90
20803;DHT22;10562;-33.856;151.182;2023-02-07T03:50:20;30.90;99.90
20803;DHT22;10562;-33.856;151.182;2023-02-07T03:52:52;30.90;99.90
20803;DHT22;10562;-33.856;151.182;2023-02-07T03:55:23;30.70;99.90
20803;DHT22;10562;-33.856;151.182;2023-02-07T03:57:54;30.70;99.90
20803;DHT22;10562;-33.856;151.182;2023-02-07T04:00:25;30.60;99.90
20803;DHT22;10562;-33.856;151.182;2023-02-07T04:02:56;30.70;99.90
20803;DHT22;10562;-33.856;151.182;2023-02-07T04:05:26;30.40;99.90
20803;DHT22;10562;-33.856;151.182;2023-02-07T04:08:02;30.20;99.90
20803;DHT22;10562;-33.856;151.182;2023-02-07T04:10:32;30.30;99.90
20803;DHT22;10562;-33.856;151.182;2023-02-07T04:13:03;30.60;99.90
20803;DHT22;10562;-33.856;151.182;2023-02-07T04:15:34;30.80;99.90
20803;DHT22;10562;-33.856;151.182;2023-02-07T04:18:05;30.90;99.90
20803;DHT22;10562;-33.856;151.182;2023-02-07T04:20:36;30.50;99.90
20803;DHT22;10562;-33.856;151.182;2023-02-07T04:23:09;30.50;99.90
20803;DHT22;10562;-33.856;151.182;2023-02-07T04:25:40;30.50;99.90
20803;DHT22;10562;-33.856;151.182;2023-02-07T04:28:11;30.60;99.90
20803;DHT22;10562;-33.856;151.182;2023-02-07T04:30:42;30.70;99.90
20803;DHT22;10562;-33.856;151.182;2023-02-07T04:33:13;30.60;99.90
20803;DHT22;10562;-33.856;151.182;2023-02-07T04:35:44;30.80;99.90
20803;DHT22;10562;-33.856;151.182;2023-02-07T04:38:16;30.80;99.90
20803;DHT22;10562;-33.856;151.182;2023-02-07T04:40:47;31.00;99.90
20803;DHT22;10562;-33.856;151.182;2023-02-07T04:43:18;30.90;99.90
20803;DHT22;10562;-33.856;151.182;2023-02-07T04:45:49;30.80;99.90
20803;DHT22;10562;-33.856;151.182;2023-02-07T04:48:19;30.80;99.90
20803;DHT22;10562;-33.856;151.182;2023-02-07T04:50:50;30.70;99.90
20803;DHT22;10562;-33.856;151.182;2023-02-07T04:53:23;30.70;99.90
20803;DHT22;10562;-33.856;151.182;2023-02-07T04:55:54;31.10;99.90
20803;DHT22;10562;-33.856;151.182;2023-02-07T04:58:25;31.30;99.90
20803;DHT22;10562;-33.856;151.182;2023-02-07T05:00:56;31.30;99.90
20803;DHT22;10562;-33.856;151.182;2023-02-07T05:03:27;31.40;99.90
20803;DHT22;10562;-33.856;151.182;2023-02-07T05:05:58;32.00;99.90
20803;DHT22;10562;-33.856;151.182;2023-02-07T05:08:30;32.00;99.90
20803;DHT22;10562;-33.856;151.182;2023-02-07T05:11:01;31.90;99.90
20803;DHT22;10562;-33.856;151.182;2023-02-07T05:13:32;31.60;99.90
20803;DHT22;10562;-33.856;151.182;2023-02-07T05:16:03;31.20;99.90
20803;DHT22;10562;-33.856;151.182;2023-02-07T05:18:34;31.50;99.90
20803;DHT22;10562;-33.856;151.182;2023-02-07T05:21:05;31.00;99.90
20803;DHT22;10562;-33.856;151.182;2023-02-07T05:23:38;30.80;99.90
20803;DHT22;10562;-33.856;151.182;2023-02-07T05:26:09;31.30;99.90
20803;DHT22;10562;-33.856;151.182;2023-02-07T05:28:39;31.20;99.90
20803;DHT22;10562;-33.856;151.182;2023-02-07T05:31:10;31.10;99.90
20803;DHT22;10562;-33.856;151.182;2023-02-07T05:33:41;30.90;99.90
20803;DHT22;10562;-33.856;151.182;2023-02-07T05:36:10;31.10;99.90
20803;DHT22;10562;-33.856;151.182;2023-02-07T05:38:43;31.30;99.90
20803;DHT22;10562;-33.856;151.182;2023-02-07T05:41:14;31.20;99.90
20803;DHT22;10562;-33.856;151.182;2023-02-07T05:43:45;31.20;99.90
20803;DHT22;10562;-33.856;151.182;2023-02-07T05:46:16;31.70;99.90
20803;DHT22;10562;-33.856;151.182;2023-02-07T05:48:47;31.70;99.90
20803;DHT22;10562;-33.856;151.182;2023-02-07T05:51:17;31.50;99.90
20803;DHT22;10562;-33.856;151.182;2023-02-07T05:53:50;31.60;99.90
20803;DHT22;10562;-33.856;151.182;2023-02-07T05:56:21;31.70;99.90
20803;DHT22;10562;-33.856;151.182;2023-02-07T05:58:52;32.00;99.90
20803;DHT22;10562;-33.856;151.182;2023-02-07T06:01:22;31.90;99.90
20803;DHT22;10562;-33.856;151.182;2023-02-07T06:03:53;31.70;99.90
20803;DHT22;10562;-33.856;151.182;2023-02-07T06:06:24;31.60;99.90
20803;DHT22;10562;-33.856;151.182;2023-02-07T06:08:57;31.70;99.90
20803;DHT22;10562;-33.856;151.182;2023-02-07T06:11:27;31.60;99.90
20803;DHT22;10562;-33.856;151.182;2023-02-07T06:13:58;31.10;99.90
20803;DHT22;10562;-33.856;151.182;2023-02-07T06:16:29;31.30;99.90
20803;DHT22;10562;-33.856;151.182;2023-02-07T06:19:00;30.80;99.90
20803;DHT22;10562;-33.856;151.182;2023-02-07T06:21:30;30.50;99.90
20803;DHT22;10562;-33.856;151.182;2023-02-07T06:24:03;30.10;99.90
20803;DHT22;10562;-33.856;151.182;2023-02-07T06:26:35;29.40;99.90
20803;DHT22;10562;-33.856;151.182;2023-02-07T06:29:05;28.80;99.90
20803;DHT22;10562;-33.856;151.182;2023-02-07T06:31:37;28.30;99.90
20803;DHT22;10562;-33.856;151.182;2023-02-07T06:34:08;28.00;99.90
20803;DHT22;10562;-33.856;151.182;2023-02-07T06:36:39;27.60;99.90
20803;DHT22;10562;-33.856;151.182;2023-02-07T06:39:12;27.50;99.90
20803;DHT22;10562;-33.856;151.182;2023-02-07T06:41:43;27.40;99.90
20803;DHT22;10562;-33.856;151.182;2023-02-07T06:44:14;27.30;99.90
20803;DHT22;10562;-33.856;151.182;2023-02-07T06:46:45;27.20;99.90
20803;DHT22;10562;-33.856;151.182;2023-02-07T06:49:16;27.20;99.90
20803;DHT22;10562;-33.856;151.182;2023-02-07T06:51:46;27.20;99.90
20803;DHT22;10562;-33.856;151.182;2023-02-07T06:54:19;27.10;99.90
20803;DHT22;10562;-33.856;151.182;2023-02-07T06:56:50;26.90;99.90
20803;DHT22;10562;-33.856;151.182;2023-02-07T06:59:21;26.80;99.90
20803;DHT22;10562;-33.856;151.182;2023-02-07T07:01:52;26.70;99.90
20803;DHT22;10562;-33.856;151.182;2023-02-07T07:04:22;26.70;99.90
20803;DHT22;10562;-33.856;151.182;2023-02-07T07:06:53;26.70;99.90
20803;DHT22;10562;-33.856;151.182;2023-02-07T07:09:26;26.70;99.90
20803;DHT22;10562;-33.856;151.182;2023-02-07T07:11:57;26.60;99.90
20803;DHT22;10562;-33.856;151.182;2023-02-07T07:14:27;26.60;99.90
20803;DHT22;10562;-33.856;151.182;2023-02-07T07:16:59;26.50;99.90
20803;DHT22;10562;-33.856;151.182;2023-02-07T07:19:30;26.50;99.90
20803;DHT22;10562;-33.856;151.182;2023-02-07T07:22:00;26.40;99.90
20803;DHT22;10562;-33.856;151.182;2023-02-07T07:24:33;26.40;99.90
20803;DHT22;10562;-33.856;151.182;2023-02-07T07:27:04;26.30;99.90
20803;DHT22;10562;-33.856;151.182;2023-02-07T07:29:35;26.20;99.90
20803;DHT22;10562;-33.856;151.182;2023-02-07T07:32:05;26.10;99.90
20803;DHT22;10562;-33.856;151.182;2023-02-07T07:34:38;26.10;99.90
20803;DHT22;10562;-33.856;151.182;2023-02-07T07:37:10;26.00;99.90
20803;DHT22;10562;-33.856;151.182;2023-02-07T07:39:43;26.10;99.90
20803;DHT22;10562;-33.856;151.182;2023-02-07T07:42:14;26.10;99.90
20803;DHT22;10562;-33.856;151.182;2023-02-07T07:44:45;26.00;99.90
20803;DHT22;10562;-33.856;151.182;2023-02-07T07:47:15;25.90;99.90
20803;DHT22;10562;-33.856;151.182;2023-02-07T07:49:46;25.90;99.90
20803;DHT22;10562;-33.856;151.182;2023-02-07T07:52:17;25.80;99.90
20803;DHT22;10562;-33.856;151.182;2023-02-07T07:54:49;25.70;99.90
20803;DHT22;10562;-33.856;151.182;2023-02-07T07:57:20;25.60;99.90
20803;DHT22;10562;-33.856;151.182;2023-02-07T07:59:54;25.50;99.90
20803;DHT22;10562;-33.856;151.182;2023-02-07T08:02:26;25.40;99.90
20803;DHT22;10562;-33.856;151.182;2023-02-07T08:04:56;25.30;99.90
20803;DHT22;10562;-33.856;151.182;2023-02-07T08:07:27;25.20;99.90
20803;DHT22;10562;-33.856;151.182;2023-02-07T08:10:00;25.10;99.90
20803;DHT22;10562;-33.856;151.182;2023-02-07T08:12:32;25.10;99.90
20803;DHT22;10562;-33.856;151.182;2023-02-07T08:15:03;25.10;99.90
20803;DHT22;10562;-33.856;151.182;2023-02-07T08:17:34;25.10;99.90
20803;DHT22;10562;-33.856;151.182;2023-02-07T08:20:06;25.10;99.90
20803;DHT22;10562;-33.856;151.182;2023-02-07T08:22:38;25.00;99.90
20803;DHT22;10562;-33.856;151.182;2023-02-07T08:25:11;25.00;99.90
20803;DHT22;10562;-33.856;151.182;2023-02-07T08:27:42;24.90;99.90
20803;DHT22;10562;-33.856;151.182;2023-02-07T08:30:13;24.90;99.90
20803;DHT22;10562;-33.856;151.182;2023-02-07T08:32:45;24.90;99.90
20803;DHT22;10562;-33.856;151.182;2023-02-07T08:35:18;24.90;99.90
20803;DHT22;10562;-33.856;151.182;2023-02-07T08:37:49;24.90;99.90
20803;DHT22;10562;-33.856;151.182;2023-02-07T08:40:22;24.80;99.90
20803;DHT22;10562;-33.856;151.182;2023-02-07T08:42:53;24.80;99.90
20803;DHT22;10562;-33.856;151.182;2023-02-07T08:45:24;24.80;99.90
20803;DHT22;10562;-33.856;151.182;2023-02-07T08:47:54;24.80;99.90
20803;DHT22;10562;-33.856;151.182;2023-02-07T08:50:26;24.80;99.90
20803;DHT22;10562;-33.856;151.182;2023-02-07T08:52:57;24.80;99.90
20803;DHT22;10562;-33.856;151.182;2023-02-07T08:55:30;24.70;99.90
20803;DHT22;10562;-33.856;151.182;2023-02-07T08:58:00;24.60;99.90
20803;DHT22;10562;-33.856;151.182;2023-02-07T09:00:31;24.50;99.90
20803;DHT22;10562;-33.856;151.182;2023-02-07T09:03:02;24.50;99.90
20803;DHT22;10562;-33.856;151.182;2023-02-07T09:05:33;24.50;99.90
20803;DHT22;10562;-33.856;151.182;2023-02-07T09:08:04;24.50;99.90
20803;DHT22;10562;-33.856;151.182;2023-02-07T09:10:37;24.40;99.90
20803;DHT22;10562;-33.856;151.182;2023-02-07T09:13:08;24.50;99.90
20803;DHT22;10562;-33.856;151.182;2023-02-07T09:15:38;24.50;99.90
20803;DHT22;10562;-33.856;151.182;2023-02-07T09:18:09;24.50;99.90
20803;DHT22;10562;-33.856;151.182;2023-02-07T09:20:40;24.50;99.90
20803;DHT22;10562;-33.856;151.182;2023-02-07T09:23:11;24.50;99.90
20803;DHT22;10562;-33.856;151.182;2023-02-07T09:25:50;24.50;99.90
20803;DHT22;10562;-33.856;151.182;2023-02-07T09:28:21;24.50;99.90
20803;DHT22;10562;-33.856;151.182;2023-02-07T09:30:52;24.40;99.90
20803;DHT22;10562;-33.856;151.182;2023-02-07T09:33:23;24.50;99.90
20803;DHT22;10562;-33.856;151.182;2023-02-07T09:35:56;24.50;99.90
20803;DHT22;10562;-33.856;151.182;2023-02-07T09:38:27;24.50;99.90
20803;DHT22;10562;-33.856;151.182;2023-02-07T09:40:59;24.50;99.90
20803;DHT22;10562;-33.856;151.182;2023-02-07T09:43:36;24.40;99.90
20803;DHT22;10562;-33.856;151.182;2023-02-07T09:46:14;24.40;99.90
20803;DHT22;10562;-33.856;151.182;2023-02-07T09:48:49;24.40;99.90
20803;DHT22;10562;-33.856;151.182;2023-02-07T09:51:21;24.40;99.90
20803;DHT22;10562;-33.856;151.182;2023-02-07T09:53:56;24.40;99.90
20803;DHT22;10562;-33.856;151.182;2023-02-07T09:56:30;24.40;99.90
20803;DHT22;10562;-33.856;151.182;2023-02-07T09:59:05;24.50;99.90
20803;DHT22;10562;-33.856;151.182;2023-02-07T10:01:45;24.40;99.90
20803;DHT22;10562;-33.856;151.182;2023-02-07T10:04:27;24.40;99.90
20803;DHT22;10562;-33.856;151.182;2023-02-07T10:07:01;24.40;99.90
20803;DHT22;10562;-33.856;151.182;2023-02-07T10:09:37;24.40;99.90
20803;DHT22;10562;-33.856;151.182;2023-02-07T10:12:24;24.40;99.90
20803;DHT22;10562;-33.856;151.182;2023-02-07T10:15:19;24.40;99.90
20803;DHT22;10562;-33.856;151.182;2023-02-07T10:18:12;24.40;99.90
20803;DHT22;10562;-33.856;151.182;2023-02-07T10:20:50;24.40;99.90
20803;DHT22;10562;-33.856;151.182;2023-02-07T10:23:37;24.30;99.90
20803;DHT22;10562;-33.856;151.182;2023-02-07T10:26:20;24.30;99.90
20803;DHT22;10562;-33.856;151.182;2023-02-07T10:29:14;24.20;99.90
20803;DHT22;10562;-33.856;151.182;2023-02-07T10:31:47;24.10;99.90
20803;DHT22;10562;-33.856;151.182;2023-02-07T10:34:21;24.10;99.90
20803;DHT22;10562;-33.856;151.182;2023-02-07T10:36:53;24.10;99.90
20803;DHT22;10562;-33.856;151.182;2023-02-07T10:39:28;24.20;99.90
20803;DHT22;10562;-33.856;151.182;2023-02-07T10:41:59;24.20;99.90
20803;DHT22;10562;-33.856;151.182;2023-02-07T10:44:32;24.20;99.90
20803;DHT22;10562;-33.856;151.182;2023-02-07T10:47:03;24.20;99.90
20803;DHT22;10562;-33.856;151.182;2023-02-07T10:49:38;24.20;99.90
20803;DHT22;10562;-33.856;151.182;2023-02-07T10:52:21;24.10;99.90
20803;DHT22;10562;-33.856;151.182;2023-02-07T10:55:00;24.00;99.90
20803;DHT22;10562;-33.856;151.182;2023-02-07T10:57:32;23.90;99.90
20803;DHT22;10562;-33.856;151.182;2023-02-07T11:00:21;23.90;99.90
20803;DHT22;10562;-33.856;151.182;2023-02-07T11:02:56;23.90;99.90
20803;DHT22;10562;-33.856;151.182;2023-02-07T11:05:36;23.90;99.90
20803;DHT22;10562;-33.856;151.182;2023-02-07T11:08:18;23.80;99.90
20803;DHT22;10562;-33.856;151.182;2023-02-07T11:10:52;23.80;99.90
20803;DHT22;10562;-33.856;151.182;2023-02-07T11:13:25;23.80;99.90
20803;DHT22;10562;-33.856;151.182;2023-02-07T11:16:00;23.80;99.90
20803;DHT22;10562;-33.856;151.182;2023-02-07T11:18:40;23.70;99.90
20803;DHT22;10562;-33.856;151.182;2023-02-07T11:21:23;23.70;99.90
20803;DHT22;10562;-33.856;151.182;2023-02-07T11:23:57;23.70;99.90
20803;DHT22;10562;-33.856;151.182;2023-02-07T11:26:29;23.70;99.90
20803;DHT22;10562;-33.856;151.182;2023-02-07T11:29:07;23.60;99.90
20803;DHT22;10562;-33.856;151.182;2023-02-07T11:31:46;23.70;99.90
20803;DHT22;10562;-33.856;151.182;2023-02-07T11:34:42;23.70;99.90
20803;DHT22;10562;-33.856;151.182;2023-02-07T11:37:30;23.70;99.90
20803;DHT22;10562;-33.856;151.182;2023-02-07T11:40:21;23.60;99.90
20803;DHT22;10562;-33.856;151.182;2023-02-07T11:42:58;23.60;99.90
20803;DHT22;10562;-33.856;151.182;2023-02-07T11:45:30;23.60;99.90
20803;DHT22;10562;-33.856;151.182;2023-02-07T11:48:04;23.60;99.90
20803;DHT22;10562;-33.856;151.182;2023-02-07T11:50:37;23.60;99.90
20803;DHT22;10562;-33.856;151.182;2023-02-07T11:53:20;23.60;99.90
20803;DHT22;10562;-33.856;151.182;2023-02-07T11:55:53;23.60;99.90
20803;DHT22;10562;-33.856;151.182;2023-02-07T11:58:30;23.60;99.90
20803;DHT22;10562;-33.856;151.182;2023-02-07T12:01:03;23.60;99.90
20803;DHT22;10562;-33.856;151.182;2023-02-07T12:03:41;23.60;99.90
20803;DHT22;10562;-33.856;151.182;2023-02-07T12:06:17;23.60;99.90
20803;DHT22;10562;-33.856;151.182;2023-02-07T12:08:49;23.70;99.90
20803;DHT22;10562;-33.856;151.182;2023-02-07T12:11:24;23.80;99.90
20803;DHT22;10562;-33.856;151.182;2023-02-07T12:13:59;23.80;99.90
20803;DHT22;10562;-33.856;151.182;2023-02-07T12:16:37;23.80;99.90
20803;DHT22;10562;-33.856;151.182;2023-02-07T12:19:16;23.80;99.90
20803;DHT22;10562;-33.856;151.182;2023-02-07T12:21:55;23.80;99.90
20803;DHT22;10562;-33.856;151.182;2023-02-07T12:24:31;23.80;99.90
20803;DHT22;10562;-33.856;151.182;2023-02-07T12:27:12;23.80;99.90
20803;DHT22;10562;-33.856;151.182;2023-02-07T12:29:55;23.80;99.90
20803;DHT22;10562;-33.856;151.182;2023-02-07T12:32:39;23.80;99.90
20803;DHT22;10562;-33.856;151.182;2023-02-07T12:35:19;23.80;99.90
20803;DHT22;10562;-33.856;151.182;2023-02-07T12:37:58;23.80;99.90
20803;DHT22;10562;-33.856;151.182;2023-02-07T12:40:34;23.80;99.90
20803;DHT22;10562;-33.856;151.182;2023-02-07T12:43:11;23.70;99.90
20803;DHT22;10562;-33.856;151.182;2023-02-07T12:45:55;23.60;99.90
20803;DHT22;10562;-33.856;151.182;2023-02-07T12:48:36;23.60;99.90
20803;DHT22;10562;-33.856;151.182;2023-02-07T12:51:19;23.50;99.90
20803;DHT22;10562;-33.856;151.182;2023-02-07T12:54:10;23.50;99.90
20803;DHT22;10562;-33.856;151.182;2023-02-07T12:56:52;23.40;99.90
20803;DHT22;10562;-33.856;151.182;2023-02-07T12:59:28;23.40;99.90
20803;DHT22;10562;-33.856;151.182;2023-02-07T13:02:16;23.30;99.90
20803;DHT22;10562;-33.856;151.182;2023-02-07T13:05:11;23.30;99.90
20803;DHT22;10562;-33.856;151.182;2023-02-07T13:07:52;23.30;99.90
20803;DHT22;10562;-33.856;151.182;2023-02-07T13:10:34;23.20;99.90
20803;DHT22;10562;-33.856;151.182;2023-02-07T13:13:13;23.20;99.90
20803;DHT22;10562;-33.856;151.182;2023-02-07T13:15:52;23.10;99.90
20803;DHT22;10562;-33.856;151.182;2023-02-07T13:18:35;23.10;99.90
20803;DHT22;10562;-33.856;151.182;2023-02-07T13:21:14;23.10;99.90
20803;DHT22;10562;-33.856;151.182;2023-02-07T13:23:59;23.00;99.90
20803;DHT22;10562;-33.856;151.182;2023-02-07T13:26:32;23.00;99.90
20803;DHT22;10562;-33.856;151.182;2023-02-07T13:29:04;23.00;99.90
20803;DHT22;10562;-33.856;151.182;2023-02-07T13:31:38;22.90;99.90
20803;DHT22;10562;-33.856;151.182;2023-02-07T13:34:14;22.90;99.90
20803;DHT22;10562;-33.856;151.182;2023-02-07T13:36:47;22.80;99.90
20803;DHT22;10562;-33.856;151.182;2023-02-07T13:39:28;22.80;99.90
20803;DHT22;10562;-33.856;151.182;2023-02-07T13:42:10;22.80;99.90
20803;DHT22;10562;-33.856;151.182;2023-02-07T13:44:50;22.80;99.90
20803;DHT22;10562;-33.856;151.182;2023-02-07T13:47:41;22.80;99.90
20803;DHT22;10562;-33.856;151.182;2023-02-07T13:50:37;22.80;99.90
20803;DHT22;10562;-33.856;151.182;2023-02-07T13:53:24;22.80;99.90
20803;DHT22;10562;-33.856;151.182;2023-02-07T13:56:06;22.70;99.90
20803;DHT22;10562;-33.856;151.182;2023-02-07T13:58:58;22.70;99.90
20803;DHT22;10562;-33.856;151.182;2023-02-07T14:01:52;22.70;99.90
20803;DHT22;10562;-33.856;151.182;2023-02-07T14:04:24;22.70;99.90
20803;DHT22;10562;-33.856;151.182;2023-02-07T14:07:02;22.70;99.90
20803;DHT22;10562;-33.856;151.182;2023-02-07T14:09:41;22.70;99.90
20803;DHT22;10562;-33.856;151.182;2023-02-07T14:12:20;22.70;99.90
20803;DHT22;10562;-33.856;151.182;2023-02-07T14:14:51;22.60;99.90
20803;DHT22;10562;-33.856;151.182;2023-02-07T14:20:54;22.60;99.90
20803;DHT22;10562;-33.856;151.182;2023-02-07T14:23:57;22.60;99.90
20803;DHT22;10562;-33.856;151.182;2023-02-07T14:30:19;22.50;99.90
20803;DHT22;10562;-33.856;151.182;2023-02-07T14:33:11;22.50;99.90
20803;DHT22;10562;-33.856;151.182;2023-02-07T14:39:04;22.50;99.90
20803;DHT22;10562;-33.856;151.182;2023-02-07T14:41:37;22.50;99.90
20803;DHT22;10562;-33.856;151.182;2023-02-07T14:44:22;22.50;99.90
20803;DHT22;10562;-33.856;151.182;2023-02-07T14:46:57;22.50;99.90
20803;DHT22;10562;-33.856;151.182;2023-02-07T14:49:31;22.50;99.90
20803;DHT22;10562;-33.856;151.182;2023-02-07T14:52:05;22.40;99.90
20803;DHT22;10562;-33.856;151.182;2023-02-07T14:54:42;22.50;99.90
20803;DHT22;10562;-33.856;151.182;2023-02-07T14:57:24;22.40;99.90
20803;DHT22;10562;-33.856;151.182;2023-02-07T15:00:00;22.50;99.90
20803;DHT22;10562;-33.856;151.182;2023-02-07T15:02:38;22.50;99.90
20803;DHT22;10562;-33.856;151.182;2023-02-07T15:05:20;22.40;99.90
20803;DHT22;10562;-33.856;151.182;2023-02-07T15:08:04;22.30;99.90
20803;DHT22;10562;-33.856;151.182;2023-02-07T15:10:37;22.30;99.90
20803;DHT22;10562;-33.856;151.182;2023-02-07T15:13:19;22.30;99.90
20803;DHT22;10562;-33.856;151.182;2023-02-07T15:15:53;22.30;99.90
20803;DHT22;10562;-33.856;151.182;2023-02-07T15:18:28;22.30;99.90
20803;DHT22;10562;-33.856;151.182;2023-02-07T15:21:00;22.20;99.90
20803;DHT22;10562;-33.856;151.182;2023-02-07T15:23:31;22.20;99.90
20803;DHT22;10562;-33.856;151.182;2023-02-07T15:26:05;22.20;99.90
20803;DHT22;10562;-33.856;151.182;2023-02-07T15:28:36;22.20;99.90
20803;DHT22;10562;-33.856;151.182;2023-02-07T15:31:13;22.10;99.90
20803;DHT22;10562;-33.856;151.182;2023-02-07T15:33:52;22.00;99.90
20803;DHT22;10562;-33.856;151.182;2023-02-07T15:36:34;22.00;99.90
20803;DHT22;10562;-33.856;151.182;2023-02-07T15:39:06;22.00;99.90
20803;DHT22;10562;-33.856;151.182;2023-02-07T15:41:37;22.00;99.90
20803;DHT22;10562;-33.856;151.182;2023-02-07T15:44:17;22.00;99.90
20803;DHT22;10562;-33.856;151.182;2023-02-07T15:46:49;22.00;99.90
20803;DHT22;10562;-33.856;151.182;2023-02-07T15:49:30;22.00;99.90
20803;DHT22;10562;-33.856;151.182;2023-02-07T15:52:11;21.90;99.90